Huvudsida
METAR-TAF:

METAR-TAF

Flygplatser :

Stockholm-Bromma flygplats

Stockholm, Sverige

latitud: 59-21N, longitud: 017-57E, höjd: 14 m

Aktuellt väderrapport

Denna rapport gjordes för 29 minuter sedan, klockan 07:20 UTC
Vind 6 kt från sydväst
Temperatur 12°C
Fuktighet 94%
Tryck 1015 hPa
Sikt 10 km eller mer
Brutna moln på en höjd av 7000 ft
lätt regn

METAR: ESSB 180720Z 23006KT 9999 -RA BKN070 12/11 Q1015

Tid: 09:49 (07:49 UTC)

Väderprognos

Denna rapport gjordes för 2 timmar och 19 minuter sedan, klockan 05:30 UTC
Prognos gäller från 18 kl. 06 UTC till 18 kl. 15 UTC
Vind 6 kt från sydväst
Sikt 10 km eller mer
lätt regn
Sannolikhet 40%
från 18 kl. 06 UTC till 18 kl. 08 UTC
Brutna moln på en höjd av 1400 ft
Blir
från 18 kl. 08 UTC till 18 kl. 10 UTC
Vind 12 kt från väst/nordväst

TAF: ESSB 180530Z 1806/1815 23006KT 9999 -RA NSC PROB40 1806/1808 BKN014 BECMG 1808/1810 29012KT

Aktuella väderrapporter och prognoser från 4000 flygplatser (METAR- och TAF-rapporter).

De tillgängliga stationerna syns som gula och röda prickar på kartan.

För musen över prickarna för att se namnen på stationerna.

Klicka sedan för att få väderrapporter och prognoser.

För att ändra kartan: Klicka på de gröna knapparna med ett svart kors på för att zooma in; den gröna knappen med ett streck på för att zooma ut; eller på de gröna pilarna för angränsande kartor.


METAR-TAF: